createdAt,value
2023-04-26T00:00:26.793Z,53.24
2023-04-26T00:01:26.796Z,53.42
2023-04-26T00:02:26.982Z,53.71
2023-04-26T00:03:26.995Z,54.04
2023-04-26T00:04:27.170Z,54.20
2023-04-26T00:05:26.987Z,54.20
2023-04-26T00:06:26.962Z,54.17
2023-04-26T00:07:27.001Z,54.04
2023-04-26T00:08:26.981Z,53.93
2023-04-26T00:09:27.015Z,54.30
2023-04-26T00:10:27.065Z,54.07
2023-04-26T00:11:27.107Z,54.12
2023-04-26T00:12:27.161Z,54.36
2023-04-26T00:13:27.205Z,54.56
2023-04-26T00:14:27.280Z,54.21
2023-04-26T00:15:27.318Z,54.12
2023-04-26T00:16:27.436Z,54.18
2023-04-26T00:17:27.434Z,54.14
2023-04-26T00:18:27.495Z,54.09
2023-04-26T00:19:27.572Z,53.67
2023-04-26T00:20:27.620Z,53.77
2023-04-26T00:21:27.686Z,54.06
2023-04-26T00:22:27.703Z,54.26
2023-04-26T00:23:27.773Z,54.66
2023-04-26T00:24:27.818Z,54.37
2023-04-26T00:25:27.899Z,54.26
2023-04-26T00:26:27.950Z,53.44
2023-04-26T00:27:28.001Z,53.29
2023-04-26T00:28:28.085Z,52.45
2023-04-26T00:29:28.127Z,52.56
2023-04-26T00:30:28.170Z,52.96
2023-04-26T00:31:28.261Z,53.21
2023-04-26T00:32:28.325Z,53.07
2023-04-26T00:33:28.375Z,53.39
2023-04-26T00:34:28.426Z,53.49
2023-04-26T00:35:28.484Z,53.70
2023-04-26T00:36:28.528Z,53.71
2023-04-26T00:37:28.608Z,53.88
2023-04-26T00:38:28.747Z,54.19
2023-04-26T00:39:28.714Z,54.41
2023-04-26T00:40:28.805Z,54.56
2023-04-26T00:41:28.863Z,54.28
2023-04-26T00:42:28.893Z,54.24
2023-04-26T00:43:28.956Z,54.46
2023-04-26T00:44:29.004Z,54.11
2023-04-26T00:45:29.094Z,53.97
2023-04-26T00:46:29.210Z,53.80
2023-04-26T00:47:29.185Z,53.87
2023-04-26T00:48:29.220Z,53.90
2023-04-26T00:49:29.213Z,54.07
2023-04-26T00:50:29.257Z,54.28
2023-04-26T00:51:29.309Z,54.32
2023-04-26T00:52:29.334Z,54.43
2023-04-26T00:53:29.436Z,54.47
2023-04-26T00:54:29.475Z,54.27
2023-04-26T00:55:29.556Z,54.30
2023-04-26T00:56:29.576Z,54.16
2023-04-26T00:57:29.607Z,54.18
2023-04-26T00:58:29.655Z,53.79
2023-04-26T00:59:29.675Z,54.06
2023-04-26T01:00:29.729Z,53.94
2023-04-26T01:33:15.441Z,56.61
2023-04-26T01:34:15.266Z,56.37
2023-04-26T01:35:15.447Z,56.15
2023-04-26T01:36:15.250Z,56.37
2023-04-26T01:37:15.247Z,56.61
2023-04-26T01:38:15.218Z,56.50
2023-04-26T01:39:15.232Z,56.48
2023-04-26T01:40:15.477Z,56.46
2023-04-26T01:41:15.197Z,56.43
2023-04-26T01:42:15.200Z,56.29
2023-04-26T01:43:15.202Z,56.40
2023-04-26T01:44:15.185Z,56.35
2023-04-26T01:45:15.446Z,56.37
2023-04-26T01:46:15.190Z,56.36
2023-04-26T01:47:15.182Z,56.15
2023-04-26T01:48:15.172Z,55.84
2023-04-26T01:49:15.174Z,55.82
2023-04-26T01:50:15.458Z,55.96
2023-04-26T01:51:15.141Z,56.17
2023-04-26T01:52:15.120Z,56.29
2023-04-26T01:53:15.122Z,56.17
2023-04-26T01:54:15.118Z,55.84
2023-04-26T01:55:15.449Z,55.85
2023-04-26T01:56:15.108Z,56.05
2023-04-26T01:57:15.093Z,56.10
2023-04-26T01:58:15.089Z,55.65
2023-04-26T01:59:15.070Z,55.52
2023-04-26T02:00:15.459Z,55.40
2023-04-26T02:01:15.153Z,55.37
2023-04-26T02:02:15.182Z,55.45
2023-04-26T02:03:15.473Z,55.54
2023-04-26T02:04:15.276Z,55.41
2023-04-26T02:05:15.381Z,55.27
2023-04-26T02:06:15.377Z,55.33
2023-04-26T02:07:15.427Z,55.29
2023-04-26T02:08:15.519Z,55.45
2023-04-26T02:09:15.531Z,55.31
2023-04-26T02:10:15.606Z,55.20
2023-04-26T02:11:15.662Z,55.49
2023-04-26T02:12:15.711Z,55.13
2023-04-26T02:13:15.772Z,55.10
2023-04-26T02:14:15.855Z,55.52
2023-04-26T02:15:15.870Z,55.34
2023-04-26T02:16:15.940Z,55.38
2023-04-26T02:17:15.927Z,55.42
2023-04-26T02:18:15.972Z,55.51
2023-04-26T02:19:16.016Z,55.89
2023-04-26T02:20:16.056Z,56.07
2023-04-26T02:21:16.064Z,56.43
2023-04-26T02:22:16.108Z,56.48
2023-04-26T02:23:16.141Z,56.24
2023-04-26T02:24:16.164Z,56.23
2023-04-26T02:25:16.223Z,55.78
2023-04-26T02:26:16.245Z,56.07
2023-04-26T02:27:16.282Z,56.10
2023-04-26T02:28:16.380Z,55.98
2023-04-26T02:29:16.371Z,55.85
2023-04-26T02:30:16.407Z,55.74
2023-04-26T02:31:16.494Z,55.92
2023-04-26T02:32:16.534Z,56.10
2023-04-26T02:33:16.597Z,56.02
2023-04-26T02:34:16.652Z,56.21
2023-04-26T02:35:16.707Z,56.08
2023-04-26T02:36:16.767Z,56.19
2023-04-26T02:37:16.803Z,56.33
2023-04-26T02:38:16.868Z,56.28
2023-04-26T02:39:16.912Z,56.26
2023-04-26T02:40:17.032Z,56.05
2023-04-26T02:41:17.017Z,56.20
2023-04-26T02:42:17.064Z,56.29
2023-04-26T02:43:17.120Z,56.15
2023-04-26T02:44:17.189Z,55.99
2023-04-26T02:45:17.237Z,55.96
2023-04-26T02:46:17.487Z,55.90
2023-04-26T02:47:17.268Z,56.00
2023-04-26T02:48:17.329Z,56.26
2023-04-26T02:49:17.362Z,56.27
2023-04-26T02:50:17.406Z,56.19
2023-04-26T02:51:17.439Z,56.17
2023-04-26T02:52:17.484Z,56.39
2023-04-26T02:53:17.552Z,55.88
2023-04-26T02:54:17.589Z,56.27
2023-04-26T02:55:17.613Z,56.30
2023-04-26T02:56:17.600Z,56.34
2023-04-26T02:57:17.639Z,56.12
2023-04-26T02:58:17.719Z,55.98
2023-04-26T02:59:17.748Z,55.97
2023-04-26T03:00:17.840Z,55.80
2023-04-26T03:01:17.921Z,55.69
2023-04-26T03:02:18.038Z,55.68
2023-04-26T03:03:18.230Z,55.90
2023-04-26T03:04:18.221Z,56.37
2023-04-26T03:05:18.131Z,56.33
2023-04-26T03:06:18.171Z,56.27
2023-04-26T03:07:18.237Z,55.90
2023-04-26T03:08:18.293Z,55.66
2023-04-26T03:09:18.342Z,55.61
2023-04-26T03:10:18.389Z,55.72
2023-04-26T03:11:18.418Z,55.99
2023-04-26T03:12:18.468Z,56.19
2023-04-26T03:13:18.505Z,56.19
2023-04-26T03:14:18.576Z,56.03
2023-04-26T03:15:18.589Z,55.87
2023-04-26T03:16:18.639Z,55.79
2023-04-26T03:17:18.685Z,55.76
2023-04-26T03:18:18.735Z,56.12
2023-04-26T03:19:18.801Z,56.04
2023-04-26T03:20:18.871Z,56.10
2023-04-26T03:21:18.901Z,55.84
2023-04-26T03:22:18.937Z,55.54
2023-04-26T03:23:18.956Z,55.29
2023-04-26T03:24:18.985Z,55.17
2023-04-26T03:25:19.010Z,55.07
2023-04-26T03:26:19.043Z,55.44
2023-04-26T03:27:19.080Z,55.81
2023-04-26T03:28:19.120Z,55.95
2023-04-26T03:29:19.126Z,55.96
2023-04-26T03:30:19.146Z,56.00
2023-04-26T03:31:19.217Z,55.76
2023-04-26T03:32:19.266Z,55.73
2023-04-26T03:33:19.252Z,55.80
2023-04-26T03:34:19.297Z,56.10
2023-04-26T03:35:19.328Z,55.74
2023-04-26T03:36:19.359Z,55.79
2023-04-26T03:37:19.386Z,55.82
2023-04-26T03:38:19.453Z,56.01
2023-04-26T03:39:19.493Z,55.92
2023-04-26T03:40:19.505Z,55.67
2023-04-26T03:41:19.538Z,55.77
2023-04-26T03:42:19.576Z,55.88
2023-04-26T03:43:19.590Z,55.93
2023-04-26T03:44:19.595Z,56.03
2023-04-26T03:45:19.633Z,55.84
2023-04-26T03:46:19.729Z,55.35
2023-04-26T03:47:19.691Z,55.39
2023-04-26T03:48:19.707Z,55.53
2023-04-26T03:49:19.746Z,55.49
2023-04-26T03:50:19.774Z,55.40
2023-04-26T03:51:19.782Z,55.51
2023-04-26T03:52:19.821Z,55.30
2023-04-26T03:53:19.870Z,55.28
2023-04-26T03:54:19.898Z,55.48
2023-04-26T03:55:19.941Z,55.42
2023-04-26T03:56:19.961Z,55.49
2023-04-26T03:57:19.983Z,55.66
2023-04-26T03:58:19.969Z,55.41
2023-04-26T03:59:19.966Z,55.12
2023-04-26T04:00:19.976Z,55.14
2023-04-26T04:01:19.982Z,55.21
2023-04-26T04:02:20.042Z,55.16
2023-04-26T04:03:20.144Z,55.10
2023-04-26T04:04:20.167Z,55.03
2023-04-26T04:05:20.016Z,55.30
2023-04-26T04:06:19.971Z,54.99
2023-04-26T04:07:19.992Z,55.23
2023-04-26T04:08:19.978Z,55.40
2023-04-26T04:09:19.975Z,55.09
2023-04-26T04:10:19.978Z,54.95
2023-04-26T04:11:19.972Z,55.12
2023-04-26T04:12:19.975Z,55.30
2023-04-26T04:13:19.982Z,55.36
2023-04-26T04:14:20.049Z,55.08
2023-04-26T04:15:20.037Z,54.97
2023-04-26T04:16:20.105Z,55.31
2023-04-26T04:17:20.021Z,55.17
2023-04-26T04:18:20.048Z,55.26
2023-04-26T04:19:20.030Z,55.41
2023-04-26T04:20:20.040Z,55.43
2023-04-26T04:21:20.061Z,55.08
2023-04-26T04:22:20.038Z,55.16
2023-04-26T04:23:20.066Z,55.21
2023-04-26T04:24:20.054Z,55.15
2023-04-26T04:25:20.086Z,55.08
2023-04-26T04:26:20.103Z,55.28
2023-04-26T04:27:20.131Z,55.21
2023-04-26T04:28:20.154Z,55.14
2023-04-26T04:29:20.180Z,55.20
2023-04-26T04:30:20.217Z,55.34
2023-04-26T04:31:20.318Z,55.14
2023-04-26T04:32:20.248Z,55.15
2023-04-26T04:33:20.311Z,55.29
2023-04-26T04:34:20.363Z,54.92
2023-04-26T04:35:20.393Z,54.88
2023-04-26T04:36:20.418Z,54.73
2023-04-26T04:37:20.463Z,54.68
2023-04-26T04:38:20.491Z,54.90
2023-04-26T04:39:20.508Z,55.15
2023-04-26T04:40:20.515Z,55.01
2023-04-26T04:41:20.530Z,54.85
2023-04-26T04:42:20.528Z,54.56
2023-04-26T04:43:20.517Z,54.62
2023-04-26T04:44:20.529Z,54.73
2023-04-26T04:45:20.576Z,54.88
2023-04-26T04:46:20.574Z,54.81
2023-04-26T04:47:20.539Z,54.97
2023-04-26T04:48:20.551Z,54.77
2023-04-26T04:49:20.532Z,55.00
2023-04-26T04:50:20.542Z,55.15
2023-04-26T04:51:20.552Z,55.12
2023-04-26T04:52:20.532Z,55.38
2023-04-26T04:53:20.548Z,55.39
2023-04-26T04:54:20.536Z,55.26
2023-04-26T04:55:20.544Z,55.22
2023-04-26T04:56:20.536Z,55.37
2023-04-26T04:57:20.514Z,55.31
2023-04-26T04:58:20.545Z,55.34
2023-04-26T04:59:20.563Z,55.37
2023-04-26T05:00:20.996Z,55.44
2023-04-26T05:01:20.554Z,55.20
2023-04-26T05:02:20.635Z,55.50
2023-04-26T05:03:20.740Z,55.42
2023-04-26T05:04:20.678Z,55.26
2023-04-26T05:05:20.583Z,55.36
2023-04-26T05:06:20.605Z,55.18
2023-04-26T05:07:20.677Z,55.03
2023-04-26T05:08:20.714Z,55.00
2023-04-26T05:09:20.761Z,55.22
2023-04-26T05:10:20.837Z,55.31
2023-04-26T05:11:20.868Z,55.72
2023-04-26T05:12:20.929Z,55.95
2023-04-26T05:13:20.988Z,55.96
2023-04-26T05:14:21.021Z,55.43
2023-04-26T05:15:21.095Z,55.40
2023-04-26T05:16:21.159Z,55.39
2023-04-26T05:17:21.179Z,55.75
2023-04-26T05:18:21.237Z,55.67
2023-04-26T05:19:21.303Z,55.95
2023-04-26T05:20:21.390Z,56.07
2023-04-26T05:21:21.407Z,55.85
2023-04-26T05:22:21.467Z,55.60
2023-04-26T05:23:21.505Z,55.50
2023-04-26T05:24:21.615Z,55.54
2023-04-26T05:25:22.579Z,55.17
2023-04-26T05:26:21.705Z,54.92
2023-04-26T05:27:21.718Z,54.99
2023-04-26T05:28:21.795Z,55.09
2023-04-26T05:29:21.910Z,55.34
2023-04-26T05:30:21.917Z,55.30
2023-04-26T05:31:21.974Z,55.16
2023-04-26T05:32:22.013Z,54.92
2023-04-26T05:33:22.076Z,55.18
2023-04-26T05:34:22.143Z,55.11
2023-04-26T05:35:22.201Z,55.07
2023-04-26T05:36:22.268Z,54.84
2023-04-26T05:37:22.309Z,54.82
2023-04-26T05:38:22.387Z,54.99
2023-04-26T05:39:22.462Z,55.03
2023-04-26T05:40:22.504Z,55.24
2023-04-26T05:41:22.522Z,55.13
2023-04-26T05:42:22.650Z,55.13
2023-04-26T05:43:22.656Z,54.93
2023-04-26T05:44:22.685Z,54.91
2023-04-26T05:45:22.764Z,54.89
2023-04-26T05:46:22.880Z,54.52
2023-04-26T05:47:22.788Z,54.86
2023-04-26T05:48:22.821Z,54.83
2023-04-26T05:49:22.848Z,54.65
2023-04-26T05:50:23.010Z,54.71
2023-04-26T05:51:22.870Z,54.58
2023-04-26T05:52:22.893Z,54.70
2023-04-26T05:53:22.918Z,54.76
2023-04-26T05:54:22.942Z,55.02
2023-04-26T05:55:22.970Z,55.00
2023-04-26T05:56:23.039Z,55.01
2023-04-26T05:57:23.084Z,54.73
2023-04-26T05:58:23.120Z,54.77
2023-04-26T05:59:23.148Z,54.59
2023-04-26T06:00:23.203Z,54.57
2023-04-26T06:01:23.237Z,54.91
2023-04-26T06:02:23.376Z,54.37
2023-04-26T06:03:23.443Z,54.40
2023-04-26T06:04:23.471Z,54.61
2023-04-26T06:05:23.546Z,54.63
2023-04-26T06:06:23.379Z,54.72
2023-04-26T06:07:23.528Z,54.66
2023-04-26T06:08:23.413Z,54.17
2023-04-26T06:09:23.432Z,54.10
2023-04-26T06:10:23.420Z,54.34
2023-04-26T06:11:23.432Z,54.31
2023-04-26T06:12:23.420Z,54.12
2023-04-26T06:13:23.447Z,54.13
2023-04-26T06:14:30.354Z,54.58
2023-04-26T06:15:24.518Z,54.59
2023-04-26T06:16:23.475Z,54.30
2023-04-26T06:17:23.533Z,54.31
2023-04-26T06:18:23.438Z,54.60
2023-04-26T06:19:23.416Z,55.06
2023-04-26T06:20:23.572Z,54.72
2023-04-26T06:21:23.393Z,54.35
2023-04-26T06:22:23.399Z,54.30
2023-04-26T06:23:23.446Z,54.64
2023-04-26T06:24:23.380Z,54.38
2023-04-26T06:25:23.532Z,54.30
2023-04-26T06:26:23.356Z,54.57
2023-04-26T06:27:23.365Z,54.47
2023-04-26T06:28:23.346Z,54.61
2023-04-26T06:29:23.401Z,54.46
2023-04-26T06:30:23.579Z,54.58
2023-04-26T06:31:23.390Z,54.38
2023-04-26T06:32:23.372Z,54.30
2023-04-26T06:33:23.303Z,54.47
2023-04-26T06:34:23.477Z,54.77
2023-04-26T06:35:23.537Z,54.75
2023-04-26T06:36:23.349Z,54.72
2023-04-26T06:37:23.392Z,54.33
2023-04-26T06:38:23.459Z,54.04
2023-04-26T06:39:23.476Z,53.98
2023-04-26T06:40:24.033Z,54.00
2023-04-26T06:41:23.621Z,53.92
2023-04-26T06:42:23.788Z,53.74
2023-04-26T06:43:23.838Z,53.79
2023-04-26T06:44:23.776Z,53.90
2023-04-26T06:45:24.011Z,53.71
2023-04-26T06:46:23.954Z,53.66
2023-04-26T06:47:23.918Z,53.52
2023-04-26T06:48:23.942Z,53.44
2023-04-26T06:49:23.957Z,53.11
2023-04-26T06:50:24.154Z,52.92
2023-04-26T06:51:24.111Z,52.57
2023-04-26T06:52:24.203Z,52.47
2023-04-26T06:53:24.249Z,52.47
2023-04-26T06:54:24.309Z,52.37
2023-04-26T06:55:24.354Z,52.26
2023-04-26T06:56:24.406Z,52.38
2023-04-26T06:57:24.556Z,52.53
2023-04-26T06:58:24.523Z,52.73
2023-04-26T06:59:24.608Z,52.04
2023-04-26T07:00:24.683Z,52.46
2023-04-26T07:01:24.712Z,52.14
2023-04-26T07:02:24.985Z,52.20
2023-04-26T07:03:25.027Z,52.33
2023-04-26T07:04:25.076Z,52.29
2023-04-26T07:05:24.902Z,52.23
2023-04-26T07:06:24.936Z,51.75
2023-04-26T07:07:24.971Z,51.48
2023-04-26T07:08:25.037Z,51.28
2023-04-26T07:09:25.423Z,51.25
2023-04-26T07:10:25.137Z,51.40
2023-04-26T07:11:26.333Z,51.53
2023-04-26T07:12:25.198Z,51.29
2023-04-26T07:13:25.234Z,51.13
2023-04-26T07:14:25.276Z,50.78
2023-04-26T07:15:25.320Z,50.68
2023-04-26T07:16:25.352Z,50.24
2023-04-26T07:17:25.341Z,49.68
2023-04-26T07:18:25.362Z,49.73
2023-04-26T07:19:25.358Z,49.75
2023-04-26T07:20:25.632Z,49.51
2023-04-26T07:21:25.420Z,49.58
2023-04-26T07:22:25.481Z,49.49
2023-04-26T07:23:25.439Z,49.82
2023-04-26T07:24:25.455Z,49.82
2023-04-26T07:25:26.437Z,49.31
2023-04-26T07:26:25.675Z,49.23
2023-04-26T07:27:25.484Z,49.40
2023-04-26T07:28:25.541Z,49.50
2023-04-26T07:29:25.550Z,49.66
2023-04-26T07:30:26.160Z,49.64
2023-04-26T07:31:25.574Z,49.07
2023-04-26T07:32:25.696Z,49.29
2023-04-26T07:33:25.760Z,48.93
2023-04-26T07:34:25.589Z,48.83
2023-04-26T07:35:26.051Z,48.98
2023-04-26T07:36:25.612Z,48.96
2023-04-26T07:37:25.576Z,48.73
2023-04-26T07:38:25.594Z,48.97
2023-04-26T07:39:25.627Z,49.39
2023-04-26T07:40:26.037Z,49.74
2023-04-26T07:41:25.624Z,49.21
2023-04-26T07:42:25.674Z,48.35
2023-04-26T07:43:25.603Z,48.54
2023-04-26T07:44:25.603Z,48.27
2023-04-26T07:45:25.637Z,47.76
2023-04-26T07:46:25.674Z,47.67
2023-04-26T07:47:25.659Z,47.98
2023-04-26T07:48:25.655Z,48.64
2023-04-26T07:49:25.636Z,48.36
2023-04-26T07:50:26.043Z,48.18
2023-04-26T07:51:25.690Z,48.53
2023-04-26T07:52:25.687Z,48.60
2023-04-26T07:53:25.719Z,47.99
2023-04-26T07:54:25.756Z,48.52
2023-04-26T07:55:26.025Z,49.02
2023-04-26T07:56:25.853Z,48.55
2023-04-26T07:57:26.567Z,48.42
2023-04-26T07:58:25.986Z,46.66
2023-04-26T07:59:26.036Z,45.77
2023-04-26T08:00:26.535Z,45.97
2023-04-26T08:01:26.179Z,45.95
2023-04-26T08:02:37.325Z,46.00
2023-04-26T08:03:27.364Z,46.40
2023-04-26T08:04:26.348Z,46.22
2023-04-26T08:05:26.465Z,46.54
2023-04-26T08:06:26.191Z,46.87
2023-04-26T08:07:26.158Z,47.14
2023-04-26T08:08:26.161Z,47.12
2023-04-26T08:09:26.176Z,46.96
2023-04-26T08:10:26.163Z,46.65
2023-04-26T08:11:26.187Z,46.70
2023-04-26T08:12:26.203Z,45.82
2023-04-26T08:13:29.179Z,45.10
2023-04-26T08:14:26.255Z,45.02
2023-04-26T08:15:26.527Z,44.89
2023-04-26T08:16:26.265Z,44.77
2023-04-26T08:17:26.237Z,44.68
2023-04-26T08:18:26.217Z,45.24
2023-04-26T08:19:26.208Z,45.51
2023-04-26T08:20:26.247Z,46.06
2023-04-26T08:21:26.168Z,46.51
2023-04-26T08:22:26.219Z,46.66
2023-04-26T08:23:26.203Z,46.77
2023-04-26T08:24:26.216Z,46.94
2023-04-26T08:25:26.172Z,46.93
2023-04-26T08:26:26.145Z,46.95
2023-04-26T08:27:26.144Z,46.86
2023-04-26T08:28:26.169Z,46.96
2023-04-26T08:29:26.194Z,44.97
2023-04-26T08:30:26.132Z,45.18
2023-04-26T08:31:26.166Z,45.45
2023-04-26T08:32:26.215Z,44.52
2023-04-26T08:33:26.208Z,45.13
2023-04-26T08:34:26.100Z,45.98
2023-04-26T08:35:26.057Z,46.35
2023-04-26T08:36:26.077Z,45.62
2023-04-26T08:37:26.993Z,45.17
2023-04-26T08:38:26.068Z,45.02
2023-04-26T08:39:26.058Z,44.39
2023-04-26T08:40:26.552Z,44.09
2023-04-26T08:41:26.043Z,44.01
2023-04-26T08:42:26.042Z,43.85
2023-04-26T08:43:26.035Z,44.68
2023-04-26T08:44:26.020Z,45.05
2023-04-26T08:45:26.036Z,45.26
2023-04-26T08:46:26.057Z,45.25
2023-04-26T08:47:26.020Z,45.90
2023-04-26T08:48:25.998Z,45.93
2023-04-26T08:49:25.980Z,44.83
2023-04-26T08:50:26.066Z,44.66
2023-04-26T08:51:25.990Z,44.76
2023-04-26T08:52:25.965Z,44.61
2023-04-26T08:53:25.949Z,44.86
2023-04-26T08:54:25.994Z,44.94
2023-04-26T08:55:25.965Z,44.84
2023-04-26T08:56:25.935Z,43.91
2023-04-26T08:57:25.937Z,44.01
2023-04-26T08:58:25.907Z,43.68
2023-04-26T08:59:25.904Z,43.28
2023-04-26T09:00:25.968Z,41.85
2023-04-26T09:01:26.194Z,41.67
2023-04-26T09:02:26.021Z,42.34
2023-04-26T09:03:26.032Z,42.73
2023-04-26T09:04:26.021Z,42.71
2023-04-26T09:05:25.902Z,41.96
2023-04-26T09:06:25.846Z,41.75
2023-04-26T09:07:25.845Z,42.05
2023-04-26T09:08:25.885Z,41.55
2023-04-26T09:09:27.380Z,41.83
2023-04-26T09:10:25.825Z,41.42
2023-04-26T09:11:25.813Z,40.88
2023-04-26T09:12:25.807Z,40.19
2023-04-26T09:13:25.792Z,39.73
2023-04-26T09:14:25.799Z,38.36
2023-04-26T09:15:25.795Z,38.92
2023-04-26T09:16:26.137Z,39.47
2023-04-26T09:17:25.809Z,37.53
2023-04-26T09:18:25.771Z,36.69
2023-04-26T09:19:25.752Z,35.76
2023-04-26T09:20:25.784Z,36.31
2023-04-26T09:21:26.065Z,35.72
2023-04-26T09:22:25.719Z,35.04
2023-04-26T09:23:25.730Z,34.90
2023-04-26T09:24:25.711Z,35.43
2023-04-26T09:25:25.737Z,35.69
2023-04-26T09:26:26.063Z,35.52
2023-04-26T09:27:25.709Z,34.40
2023-04-26T09:28:25.688Z,33.76
2023-04-26T09:29:25.695Z,33.70
2023-04-26T09:30:25.689Z,33.49
2023-04-26T09:31:26.093Z,33.83
2023-04-26T09:32:25.661Z,34.42
2023-04-26T09:33:25.805Z,34.97
2023-04-26T09:34:25.680Z,35.22
2023-04-26T09:35:25.669Z,33.99
2023-04-26T09:36:25.663Z,31.90
2023-04-26T09:37:25.633Z,31.78
2023-04-26T09:38:25.644Z,31.86
2023-04-26T09:39:25.633Z,32.52
2023-04-26T09:40:25.616Z,33.60
2023-04-26T09:41:26.060Z,33.86
2023-04-26T09:42:25.600Z,34.03
2023-04-26T09:43:25.597Z,34.14
2023-04-26T09:44:25.607Z,34.82
2023-04-26T09:45:25.585Z,35.05
2023-04-26T09:46:25.703Z,33.46
2023-04-26T09:47:25.601Z,33.21
2023-04-26T09:48:25.562Z,32.83
2023-04-26T09:49:25.552Z,32.71
2023-04-26T09:50:25.596Z,33.26
2023-04-26T09:51:26.066Z,33.40
2023-04-26T09:52:25.722Z,32.74
2023-04-26T09:53:25.513Z,32.33
2023-04-26T09:54:25.557Z,31.15
2023-04-26T09:55:34.908Z,31.48
2023-04-26T09:56:26.559Z,32.14
2023-04-26T09:57:25.528Z,32.48
2023-04-26T09:58:25.484Z,34.04
2023-04-26T09:59:25.491Z,33.18
2023-04-26T10:00:25.486Z,32.26
2023-04-26T10:01:25.525Z,31.73
2023-04-26T10:02:25.567Z,31.69
2023-04-26T10:03:25.611Z,31.61
2023-04-26T10:04:25.564Z,31.97
2023-04-26T10:05:25.420Z,31.85
2023-04-26T10:06:25.448Z,32.12
2023-04-26T10:07:25.470Z,32.21
2023-04-26T10:08:25.473Z,33.01
2023-04-26T10:09:25.389Z,32.88
2023-04-26T10:10:25.412Z,32.78
2023-04-26T10:11:25.430Z,32.79
2023-04-26T10:12:25.390Z,32.56
2023-04-26T10:13:25.389Z,32.43
2023-04-26T10:14:25.344Z,32.69
2023-04-26T10:15:25.397Z,33.02
2023-04-26T10:16:25.398Z,32.59
2023-04-26T10:17:25.361Z,31.97
2023-04-26T10:18:25.360Z,32.05
2023-04-26T10:19:25.357Z,32.82
2023-04-26T10:20:25.377Z,32.67
2023-04-26T10:21:25.588Z,31.97
2023-04-26T10:22:25.418Z,31.83
2023-04-26T10:23:25.370Z,31.64
2023-04-26T10:24:25.402Z,32.02
2023-04-26T10:25:25.447Z,32.06
2023-04-26T10:26:25.700Z,32.60
2023-04-26T10:27:25.446Z,32.86
2023-04-26T10:28:25.483Z,33.53
2023-04-26T10:29:25.531Z,33.08
2023-04-26T10:30:25.477Z,32.58
2023-04-26T10:31:25.675Z,32.53
2023-04-26T10:32:25.517Z,31.49
2023-04-26T10:33:25.546Z,31.41
2023-04-26T10:34:25.554Z,31.63
2023-04-26T10:35:25.564Z,31.72
2023-04-26T10:36:26.078Z,32.30
2023-04-26T10:37:25.613Z,32.34
2023-04-26T10:38:25.594Z,32.71
2023-04-26T10:39:25.614Z,33.54
2023-04-26T10:40:25.616Z,33.89
2023-04-26T10:41:26.089Z,34.15
2023-04-26T10:42:26.378Z,32.85
2023-04-26T10:43:26.186Z,32.46
2023-04-26T10:44:25.704Z,32.03
2023-04-26T10:45:25.712Z,32.25
2023-04-26T10:46:25.786Z,32.49
2023-04-26T10:47:26.011Z,31.86
2023-04-26T10:48:25.791Z,31.95
2023-04-26T10:49:26.744Z,32.27
2023-04-26T10:50:25.801Z,33.10
2023-04-26T10:51:25.819Z,32.85
2023-04-26T10:52:25.845Z,31.38
2023-04-26T10:53:25.888Z,31.70
2023-04-26T10:54:25.954Z,32.42
2023-04-26T10:55:26.045Z,31.94
2023-04-26T10:56:26.061Z,32.33
2023-04-26T10:57:26.053Z,33.07
2023-04-26T10:58:26.103Z,32.81
2023-04-26T11:00:27.846Z,32.93
2023-04-26T11:01:26.166Z,33.96
2023-04-26T11:02:26.207Z,33.23
2023-04-26T11:03:26.218Z,33.75
2023-04-26T11:04:26.220Z,34.17
2023-04-26T11:05:26.112Z,34.08
2023-04-26T11:06:26.131Z,33.64
2023-04-26T11:07:26.121Z,32.20
2023-04-26T11:08:26.128Z,31.73
2023-04-26T11:09:26.112Z,31.10
2023-04-26T11:10:26.088Z,30.91
2023-04-26T11:11:26.095Z,30.07
2023-04-26T11:12:26.099Z,30.49
2023-04-26T11:13:26.246Z,30.60
2023-04-26T11:14:26.268Z,30.40
2023-04-26T11:15:26.077Z,30.47
2023-04-26T11:16:27.630Z,30.93
2023-04-26T11:17:26.706Z,32.34
2023-04-26T11:18:26.041Z,32.31
2023-04-26T11:19:26.017Z,31.32
2023-04-26T11:20:26.007Z,30.11
2023-04-26T11:21:26.070Z,30.42
2023-04-26T11:22:26.009Z,30.71
2023-04-26T11:23:25.989Z,29.51
2023-04-26T11:24:25.996Z,29.60
2023-04-26T11:25:25.991Z,31.01
2023-04-26T11:26:25.994Z,31.21
2023-04-26T11:27:25.954Z,30.65
2023-04-26T11:28:25.971Z,30.02
2023-04-26T11:29:25.988Z,29.16
2023-04-26T11:30:26.059Z,29.36
2023-04-26T11:31:26.141Z,28.84
2023-04-26T11:32:26.166Z,28.76
2023-04-26T11:33:26.173Z,29.23
2023-04-26T11:34:26.226Z,30.92
2023-04-26T11:35:26.247Z,30.17
2023-04-26T11:36:26.298Z,28.06
2023-04-26T11:37:26.321Z,27.63
2023-04-26T11:38:26.357Z,27.66
2023-04-26T11:39:26.399Z,29.28
2023-04-26T11:40:26.457Z,31.19
2023-04-26T11:41:26.511Z,30.82
2023-04-26T11:42:26.500Z,30.29
2023-04-26T11:43:26.560Z,29.50
2023-04-26T11:44:26.566Z,29.34
2023-04-26T11:45:26.573Z,29.27
2023-04-26T11:46:26.725Z,28.48
2023-04-26T11:47:26.659Z,28.47
2023-04-26T11:48:26.882Z,28.47
2023-04-26T11:49:26.696Z,28.05
2023-04-26T11:50:26.768Z,28.92
2023-04-26T11:51:26.745Z,28.23
2023-04-26T11:52:26.783Z,28.70
2023-04-26T11:53:26.752Z,28.08
2023-04-26T11:54:26.768Z,27.92
2023-04-26T11:55:26.786Z,28.66
2023-04-26T11:56:26.814Z,27.44
2023-04-26T11:57:26.772Z,27.56
2023-04-26T11:58:26.780Z,27.11
2023-04-26T11:59:26.797Z,27.40
2023-04-26T12:00:26.842Z,26.87
2023-04-26T12:01:26.868Z,27.52
2023-04-26T12:02:26.951Z,26.84
2023-04-26T12:03:27.019Z,27.36
2023-04-26T12:04:29.820Z,26.86
2023-04-26T12:06:26.854Z,25.28
2023-04-26T12:07:26.855Z,25.64
2023-04-26T12:08:26.855Z,26.74
2023-04-26T12:09:26.849Z,28.13
2023-04-26T12:10:26.835Z,27.33
2023-04-26T12:11:26.838Z,27.06
2023-04-26T12:12:26.832Z,26.93
2023-04-26T12:13:26.819Z,26.58
2023-04-26T12:14:26.800Z,26.01
2023-04-26T12:15:26.810Z,26.90
2023-04-26T12:16:27.422Z,26.96
2023-04-26T12:17:27.012Z,26.30
2023-04-26T12:18:26.867Z,26.51
2023-04-26T12:19:26.771Z,26.60
2023-04-26T12:20:26.769Z,27.20
2023-04-26T12:21:28.251Z,26.61
2023-04-26T12:22:26.774Z,26.58
2023-04-26T12:23:26.729Z,27.07
2023-04-26T12:24:26.734Z,27.04
2023-04-26T12:25:26.724Z,26.17
2023-04-26T12:26:26.725Z,26.66
2023-04-26T12:27:26.723Z,27.30
2023-04-26T12:28:26.740Z,27.53
2023-04-26T12:29:26.795Z,26.85
2023-04-26T12:30:26.739Z,26.67
2023-04-26T12:31:26.751Z,26.62
2023-04-26T12:32:26.670Z,25.94
2023-04-26T12:33:26.720Z,24.56
2023-04-26T12:34:26.678Z,24.82
2023-04-26T12:35:26.649Z,25.46
2023-04-26T12:36:26.651Z,25.31
2023-04-26T12:37:26.652Z,24.90
2023-04-26T12:38:26.658Z,25.31
2023-04-26T12:39:26.639Z,26.04
2023-04-26T12:40:26.646Z,26.43
2023-04-26T12:41:26.641Z,26.51
2023-04-26T12:42:26.598Z,26.60
2023-04-26T12:43:26.596Z,26.91
2023-04-26T12:44:26.581Z,26.54
2023-04-26T12:45:26.597Z,25.98
2023-04-26T12:46:26.663Z,25.68
2023-04-26T12:47:26.626Z,25.96
2023-04-26T12:48:26.575Z,26.88
2023-04-26T12:49:26.561Z,28.56
2023-04-26T12:50:26.583Z,28.16
2023-04-26T12:51:26.614Z,28.11
2023-04-26T12:52:26.534Z,26.84
2023-04-26T12:53:26.558Z,26.85
2023-04-26T12:54:26.519Z,25.78
2023-04-26T12:55:26.531Z,25.87
2023-04-26T12:56:26.642Z,27.15
2023-04-26T12:57:26.506Z,26.63
2023-04-26T12:58:26.523Z,27.20
2023-04-26T12:59:26.523Z,27.59
2023-04-26T13:00:26.555Z,26.69
2023-04-26T13:01:26.692Z,26.34
2023-04-26T13:02:26.598Z,25.76
2023-04-26T13:03:26.636Z,24.72
2023-04-26T13:04:26.599Z,24.65
2023-04-26T13:05:26.460Z,26.00
2023-04-26T13:06:26.441Z,27.50
2023-04-26T13:07:26.446Z,26.47
2023-04-26T13:08:26.422Z,25.69
2023-04-26T13:09:26.420Z,25.59
2023-04-26T13:10:26.415Z,24.89
2023-04-26T13:11:26.442Z,25.13
2023-04-26T13:12:26.426Z,26.19
2023-04-26T13:13:35.884Z,26.38
2023-04-26T13:14:27.390Z,25.39
2023-04-26T13:15:26.407Z,24.48
2023-04-26T13:16:26.436Z,24.75
2023-04-26T13:17:26.414Z,25.78
2023-04-26T13:18:26.373Z,25.27
2023-04-26T13:19:26.373Z,24.65
2023-04-26T13:20:28.289Z,25.37
2023-04-26T13:21:26.615Z,25.52
2023-04-26T13:22:26.361Z,25.33
2023-04-26T13:23:26.374Z,25.95
2023-04-26T13:24:26.360Z,24.65
2023-04-26T13:25:26.315Z,24.56
2023-04-26T13:26:27.860Z,25.08